Time;durP1;ratioP1;P1;durP2;ratioP2;P2;SDS_P1;SDS_P2;PMS_P1;PMS_P2;Temp;Humidity;BMP_temperature;BMP_pressure;BME280_temperature;BME280_humidity;BME280_pressure;Samples;Min_cycle;Max_cycle;Signal;HPM_P1;HPM_P2
2023/10/30 00:02:34;;;;;;;2.03;1.50;;;;;11.00;96185.00;;;;5067043;28;20204;-69
2023/10/30 00:05:23;;;;;;;1.87;1.50;;;;;11.10;96188.00;;;;5069548;28;20211;-69
2023/10/30 00:08:12;;;;;;;1.63;1.27;;;;;10.80;96187.00;;;;5068464;28;20711;-69
2023/10/30 00:11:03;;;;;;;2.67;2.33;;;;;11.10;96200.00;;;;5067911;28;20227;-70
2023/10/30 00:13:51;;;;;;;2.63;2.03;;;;;11.60;96192.00;;;;5069331;28;20202;-70
2023/10/30 00:16:41;;;;;;;2.83;2.03;;;;;11.50;96191.00;;;;5067811;28;20218;-70
2023/10/30 00:19:30;;;;;;;2.57;1.87;;;;;11.30;96189.00;;;;5063508;28;20227;-70
2023/10/30 00:22:19;;;;;;;1.77;1.33;;;;;11.40;96191.00;;;;5066961;28;20226;-69
2023/10/30 00:25:08;;;;;;;1.93;1.50;;;;;11.60;96185.00;;;;5069188;28;20238;-70
2023/10/30 00:28:00;;;;;;;3.33;2.30;;;;;11.50;96186.00;;;;5069990;28;20204;-70
2023/10/30 00:30:49;;;;;;;2.83;2.23;;;;;11.00;96185.00;;;;5069664;28;20220;-69
2023/10/30 00:33:38;;;;;;;2.17;1.57;;;;;10.90;96183.00;;;;5067197;28;20586;-69
2023/10/30 00:36:27;;;;;;;2.87;2.00;;;;;11.30;96179.00;;;;5062658;28;20200;-69
2023/10/30 00:39:16;;;;;;;1.90;1.40;;;;;11.50;96178.00;;;;5069763;28;20235;-69
2023/10/30 00:42:05;;;;;;;2.53;1.80;;;;;11.50;96163.00;;;;5068233;28;20200;-69
2023/10/30 00:44:56;;;;;;;3.10;2.30;;;;;10.50;96182.00;;;;5068579;28;21080;-70
2023/10/30 00:47:45;;;;;;;1.23;1.03;;;;;11.20;96167.00;;;;5067161;28;20783;-70
2023/10/30 00:50:34;;;;;;;1.37;1.13;;;;;11.20;96182.00;;;;5063183;28;20231;-69
2023/10/30 00:53:23;;;;;;;1.87;1.33;;;;;11.00;96177.00;;;;5063123;28;20208;-69
2023/10/30 00:56:12;;;;;;;1.87;1.47;;;;;11.00;96165.00;;;;5066843;28;20219;-70
2023/10/30 00:59:02;;;;;;;3.03;2.23;;;;;11.20;96180.00;;;;5068870;28;20228;-70
2023/10/30 01:01:52;;;;;;;2.57;2.00;;;;;11.10;96182.00;;;;5069363;28;20648;-69
2023/10/30 01:04:41;;;;;;;1.60;1.30;;;;;11.30;96187.00;;;;5064638;28;20200;-70
2023/10/30 01:07:30;;;;;;;1.20;1.00;;;;;11.50;96187.00;;;;5064004;28;20557;-69
2023/10/30 01:10:20;;;;;;;1.10;0.80;;;;;11.20;96175.00;;;;5061542;28;20219;-69
2023/10/30 01:13:09;;;;;;;1.53;1.27;;;;;11.40;96166.00;;;;5068609;28;20211;-70
2023/10/30 01:15:58;;;;;;;1.97;1.47;;;;;11.30;96168.00;;;;5067693;28;20211;-70
2023/10/30 01:18:48;;;;;;;2.40;1.77;;;;;11.10;96176.00;;;;5068062;28;20234;-69
2023/10/30 01:21:38;;;;;;;2.53;1.73;;;;;11.10;96171.00;;;;5063997;28;20207;-70
2023/10/30 01:24:27;;;;;;;1.37;1.23;;;;;11.00;96182.00;;;;5067184;28;20212;-69
2023/10/30 01:27:16;;;;;;;1.33;1.10;;;;;11.30;96168.00;;;;5066459;28;20689;-70
2023/10/30 01:30:06;;;;;;;2.10;1.60;;;;;11.20;96170.00;;;;5065917;28;20231;-69
2023/10/30 01:32:55;;;;;;;2.50;2.13;;;;;11.00;96173.00;;;;5066475;28;20204;-69
2023/10/30 01:35:45;;;;;;;1.40;1.27;;;;;11.20;96175.00;;;;5066530;28;20211;-70
2023/10/30 01:38:34;;;;;;;3.57;2.47;;;;;11.40;96179.00;;;;5066697;28;20239;-70
2023/10/30 01:41:24;;;;;;;3.17;2.13;;;;;11.20;96184.00;;;;5061607;28;20664;-69
2023/10/30 01:44:13;;;;;;;1.47;1.27;;;;;11.20;96190.00;;;;5069582;28;20191;-69
2023/10/30 01:47:03;;;;;;;2.77;2.27;;;;;11.30;96181.00;;;;5072042;28;20215;-70
2023/10/30 01:49:52;;;;;;;3.37;2.37;;;;;11.50;96188.00;;;;5072392;28;20219;-69
2023/10/30 01:52:44;;;;;;;1.67;1.20;;;;;11.20;96185.00;;;;5068249;28;20199;-70
2023/10/30 01:55:33;;;;;;;1.63;1.27;;;;;10.80;96181.00;;;;5067577;28;20196;-69
2023/10/30 01:58:23;;;;;;;1.83;1.40;;;;;11.10;96172.00;;;;5071690;28;20206;-70
2023/10/30 02:01:12;;;;;;;1.67;1.40;;;;;10.90;96175.00;;;;5071672;28;20587;-70
2023/10/30 02:04:02;;;;;;;2.03;1.83;;;;;11.10;96179.00;;;;5073681;28;20204;-69
2023/10/30 02:06:51;;;;;;;3.40;2.57;;;;;11.10;96173.00;;;;5071207;28;20774;-69
2023/10/30 02:09:41;;;;;;;2.10;1.60;;;;;11.40;96176.00;;;;5070397;28;20227;-69
2023/10/30 02:12:30;;;;;;;1.47;1.27;;;;;11.10;96184.00;;;;5068243;28;20204;-70
2023/10/30 02:15:20;;;;;;;1.97;1.57;;;;;10.90;96178.00;;;;5065516;28;20564;-69
2023/10/30 02:18:10;;;;;;;1.83;1.43;;;;;11.10;96181.00;;;;5071712;28;20245;-69
2023/10/30 02:21:00;;;;;;;3.63;2.77;;;;;10.80;96179.00;;;;5072702;28;20199;-70
2023/10/30 02:23:49;;;;;;;2.50;1.90;;;;;11.20;96176.00;;;;5070424;28;20199;-69
2023/10/30 02:26:39;;;;;;;3.03;2.13;;;;;11.20;96186.00;;;;5068120;28;20204;-69
2023/10/30 02:29:28;;;;;;;1.57;1.37;;;;;11.20;96183.00;;;;5070288;28;20615;-69
2023/10/30 02:32:17;;;;;;;1.70;1.30;;;;;11.40;96162.00;;;;5067958;28;20224;-69
2023/10/30 02:35:07;;;;;;;1.93;1.40;;;;;11.00;96163.00;;;;5069823;28;20604;-69
2023/10/30 02:37:56;;;;;;;1.73;1.30;;;;;11.10;96171.00;;;;5070403;28;20219;-69
2023/10/30 02:40:45;;;;;;;1.57;1.27;;;;;10.80;96179.00;;;;5069758;28;20200;-69
2023/10/30 02:43:35;;;;;;;2.07;1.47;;;;;11.20;96174.00;;;;5070451;28;20231;-70
2023/10/30 02:46:24;;;;;;;1.90;1.67;;;;;11.20;96174.00;;;;5064741;28;20204;-69
2023/10/30 02:49:13;;;;;;;1.87;1.33;;;;;11.30;96178.00;;;;5071618;28;20222;-69
2023/10/30 02:52:02;;;;;;;2.80;2.23;;;;;11.00;96175.00;;;;5069686;28;20246;-69
2023/10/30 02:54:52;;;;;;;2.20;1.73;;;;;11.20;96179.00;;;;5069947;28;20257;-69
2023/10/30 02:57:41;;;;;;;2.00;1.50;;;;;11.30;96182.00;;;;5067621;28;20218;-69
2023/10/30 03:00:31;;;;;;;1.67;1.20;;;;;11.20;96177.00;;;;5064978;28;20302;-69
2023/10/30 03:03:20;;;;;;;1.30;1.10;;;;;11.30;96182.00;;;;5065028;28;20207;-69
2023/10/30 03:06:09;;;;;;;1.73;1.20;;;;;11.30;96173.00;;;;5069956;28;20222;-69
2023/10/30 03:08:59;;;;;;;1.70;1.20;;;;;11.50;96164.00;;;;5069646;28;20602;-69
2023/10/30 03:11:48;;;;;;;2.07;1.70;;;;;11.00;96160.00;;;;5070909;28;20227;-69
2023/10/30 03:14:38;;;;;;;1.40;1.10;;;;;11.20;96164.00;;;;5070447;28;20196;-69
2023/10/30 03:17:28;;;;;;;1.43;1.20;;;;;11.10;96170.00;;;;5067140;28;20211;-69
2023/10/30 03:20:17;;;;;;;1.53;1.07;;;;;10.90;96170.00;;;;5062977;28;20215;-69
2023/10/30 03:23:06;;;;;;;1.47;1.10;;;;;11.10;96175.00;;;;5070087;28;20203;-69
2023/10/30 03:25:55;;;;;;;3.23;2.30;;;;;11.30;96183.00;;;;5070371;28;20200;-69
2023/10/30 03:28:44;;;;;;;2.07;1.53;;;;;11.20;96197.00;;;;5069550;28;20744;-69
2023/10/30 03:31:35;;;;;;;2.40;1.90;;;;;10.80;96190.00;;;;5065253;28;20234;-69
2023/10/30 03:34:25;;;;;;;1.97;1.50;;;;;11.10;96178.00;;;;5069503;28;20206;-69
2023/10/30 03:37:14;;;;;;;1.97;1.47;;;;;10.80;96191.00;;;;5069527;28;20200;-69
2023/10/30 03:40:03;;;;;;;2.30;1.93;;;;;11.20;96205.00;;;;5068432;28;20231;-69
2023/10/30 03:42:52;;;;;;;2.63;2.13;;;;;11.10;96200.00;;;;5070207;28;20203;-69
2023/10/30 03:45:41;;;;;;;1.67;1.30;;;;;11.20;96203.00;;;;5069803;28;20668;-69
2023/10/30 03:48:31;;;;;;;3.33;2.27;;;;;10.80;96197.00;;;;5066087;28;20204;-69
2023/10/30 03:51:21;;;;;;;1.87;1.40;;;;;10.80;96211.00;;;;5063171;28;20219;-69
2023/10/30 03:54:10;;;;;;;1.70;1.30;;;;;10.80;96213.00;;;;5070165;28;20215;-69
2023/10/30 03:56:59;;;;;;;2.40;1.80;;;;;11.00;96207.00;;;;5069365;28;20215;-69
2023/10/30 03:59:48;;;;;;;1.77;1.43;;;;;11.10;96202.00;;;;5068665;28;20220;-69
2023/10/30 04:02:37;;;;;;;2.00;1.50;;;;;11.20;96204.00;;;;5064932;28;20660;-69
2023/10/30 04:05:26;;;;;;;2.10;1.57;;;;;11.20;96204.00;;;;5064270;28;20215;-69
2023/10/30 04:08:16;;;;;;;1.77;1.43;;;;;10.70;96201.00;;;;5068492;28;20207;-69
2023/10/30 04:11:10;;;;;;;5.97;2.70;;;;;10.10;96201.00;;;;5068566;28;20396;-69
2023/10/30 04:13:59;;;;;;;6.97;2.72;;;;;9.80;96203.00;;;;5066891;28;20419;-70
2023/10/30 04:16:48;;;;;;;9.23;3.60;;;;;10.30;96205.00;;;;5068357;28;20391;-68
2023/10/30 04:19:38;;;;;;;2.37;1.57;;;;;10.80;96210.00;;;;5064630;28;20246;-69
2023/10/30 04:22:27;;;;;;;5.15;2.20;;;;;10.50;96209.00;;;;5064356;28;20436;-69
2023/10/30 04:25:19;;;;;;;3.13;2.10;;;;;11.00;96212.00;;;;5069912;28;20208;-70
2023/10/30 04:28:08;;;;;;;2.20;1.50;;;;;10.30;96217.00;;;;5067518;28;20204;-69
2023/10/30 04:30:57;;;;;;;4.00;2.73;;;;;10.90;96216.00;;;;5077241;22;20232;-84
2023/10/30 04:33:46;;;;;;;2.20;1.60;;;;;11.10;96212.00;;;;5069579;28;20223;-84
2023/10/30 04:36:35;;;;;;;2.77;2.07;;;;;10.40;96209.00;;;;5066445;28;20203;-82
2023/10/30 04:39:24;;;;;;;1.47;1.30;;;;;10.40;96199.00;;;;5064875;28;20214;-85
2023/10/30 04:42:15;;;;;;;1.57;1.37;;;;;10.40;96204.00;;;;5070968;28;20199;-83
2023/10/30 04:45:04;;;;;;;2.53;2.10;;;;;10.60;96208.00;;;;5070056;28;20694;-84
2023/10/30 04:47:53;;;;;;;2.90;2.20;;;;;10.70;96201.00;;;;5069897;28;20204;-84
2023/10/30 04:50:42;;;;;;;1.47;1.33;;;;;10.90;96191.00;;;;5069803;28;20652;-84
2023/10/30 04:53:31;;;;;;;2.53;1.97;;;;;10.90;96203.00;;;;5068733;28;20235;-82
2023/10/30 04:56:20;;;;;;;1.43;1.33;;;;;11.10;96205.00;;;;5064953;28;20203;-84
2023/10/30 04:59:11;;;;;;;1.50;1.40;;;;;10.70;96208.00;;;;5068812;28;20572;-84
2023/10/30 05:02:01;;;;;;;2.60;2.07;;;;;11.00;96202.00;;;;5068226;28;20192;-84
2023/10/30 05:04:50;;;;;;;2.60;2.07;;;;;11.00;96188.00;;;;5068169;28;20227;-84
2023/10/30 05:07:39;;;;;;;2.00;1.60;;;;;10.50;96208.00;;;;5065304;28;20200;-83
2023/10/30 05:10:29;;;;;;;1.93;1.40;;;;;10.30;96173.00;;;;5066436;28;20204;-85
2023/10/30 05:13:18;;;;;;;1.80;1.40;;;;;10.60;96195.00;;;;5069731;28;20226;-83
2023/10/30 05:16:08;;;;;;;2.83;2.03;;;;;10.90;96198.00;;;;5068117;28;20214;-83
2023/10/30 05:18:57;;;;;;;3.40;2.57;;;;;11.10;96204.00;;;;5066512;28;20210;-85
2023/10/30 05:21:47;;;;;;;1.10;1.00;;;;;10.90;96201.00;;;;5069583;28;20588;-84
2023/10/30 05:24:36;;;;;;;1.93;1.27;;;;;11.20;96189.00;;;;5064744;28;20220;-82
2023/10/30 05:27:27;;;;;;;1.17;0.97;;;;;10.70;96202.00;;;;5068195;28;20203;-85
2023/10/30 05:30:16;;;;;;;2.30;1.70;;;;;10.80;96194.00;;;;5067796;28;20208;-82
2023/10/30 05:33:06;;;;;;;2.37;1.97;;;;;10.90;96196.00;;;;5067906;28;20227;-82
2023/10/30 05:35:55;;;;;;;2.03;1.60;;;;;11.20;96201.00;;;;5068786;28;20203;-81
2023/10/30 05:38:44;;;;;;;1.77;1.40;;;;;10.30;96221.00;;;;5068731;28;20482;-82
2023/10/30 05:41:33;;;;;;;2.47;2.00;;;;;10.80;96221.00;;;;5066832;28;20218;-83
2023/10/30 05:44:22;;;;;;;1.73;1.37;;;;;11.20;96217.00;;;;5065209;28;20216;-81
2023/10/30 05:47:12;;;;;;;1.77;1.27;;;;;11.30;96212.00;;;;5066335;28;20204;-81
2023/10/30 05:50:03;;;;;;;2.90;2.30;;;;;10.80;96232.00;;;;5069442;28;20219;-82
2023/10/30 05:52:52;;;;;;;2.43;1.83;;;;;11.30;96223.00;;;;5065300;28;20232;-82
2023/10/30 05:55:41;;;;;;;1.43;1.20;;;;;11.40;96220.00;;;;5067104;28;20208;-83
2023/10/30 05:58:30;;;;;;;5.07;3.27;;;;;11.20;96247.00;;;;5064023;28;20207;-83
2023/10/30 06:01:19;;;;;;;1.70;1.20;;;;;11.20;96239.00;;;;5064530;28;20200;-83
2023/10/30 06:04:10;;;;;;;1.70;1.53;;;;;11.40;96250.00;;;;5063206;28;20700;-81
2023/10/30 06:07:00;;;;;;;3.37;2.33;;;;;11.10;96259.00;;;;5067776;28;20211;-84
2023/10/30 06:09:49;;;;;;;2.70;1.87;;;;;11.30;96243.00;;;;5064957;28;20238;-81
2023/10/30 06:12:39;;;;;;;3.53;2.37;;;;;11.40;96251.00;;;;5060379;28;20266;-82
2023/10/30 06:15:28;;;;;;;2.37;1.70;;;;;11.40;96258.00;;;;5059651;28;20200;-84
2023/10/30 06:18:17;;;;;;;3.17;2.37;;;;;11.50;96269.00;;;;5060506;28;20707;-82
2023/10/30 06:21:07;;;;;;;4.20;3.13;;;;;11.20;96266.00;;;;5062984;28;20704;-82
2023/10/30 06:23:58;;;;;;;4.53;3.17;;;;;11.40;96266.00;;;;5062003;28;20258;-80
2023/10/30 06:26:47;;;;;;;3.53;2.60;;;;;11.30;96269.00;;;;5061076;28;20210;-82
2023/10/30 06:29:37;;;;;;;2.77;2.07;;;;;11.60;96267.00;;;;5066800;28;20743;-81
2023/10/30 06:32:26;;;;;;;2.50;1.97;;;;;11.70;96267.00;;;;5063506;28;20220;-80
2023/10/30 06:35:15;;;;;;;4.10;2.80;;;;;11.60;96267.00;;;;5061415;28;20223;-83
2023/10/30 06:38:04;;;;;;;4.13;3.13;;;;;11.10;96259.00;;;;5063308;28;20710;-83
2023/10/30 06:40:55;;;;;;;4.80;3.17;;;;;11.50;96269.00;;;;5064196;28;20204;-81
2023/10/30 06:43:44;;;;;;;3.33;2.37;;;;;11.60;96279.00;;;;5063391;28;20215;-83
2023/10/30 06:46:33;;;;;;;3.77;2.67;;;;;11.80;96263.00;;;;5061805;28;20211;-83
2023/10/30 06:49:22;;;;;;;3.20;2.20;;;;;11.60;96275.00;;;;5063751;28;20203;-81
2023/10/30 06:52:11;;;;;;;3.10;2.20;;;;;11.30;96272.00;;;;5063840;28;20207;-81
2023/10/30 06:55:01;;;;;;;4.13;3.07;;;;;11.60;96274.00;;;;5063357;28;20600;-82
2023/10/30 06:57:51;;;;;;;5.57;3.90;;;;;11.40;96286.00;;;;5059769;28;20298;-81
2023/10/30 07:00:40;;;;;;;2.37;1.80;;;;;11.70;96287.00;;;;5065460;28;20204;-82
2023/10/30 07:03:29;;;;;;;1.87;1.37;;;;;11.40;96287.00;;;;5065154;28;20224;-83
2023/10/30 07:06:18;;;;;;;1.77;1.47;;;;;11.70;96290.00;;;;5065862;28;20204;-82
2023/10/30 07:09:07;;;;;;;4.50;3.40;;;;;11.90;96271.00;;;;5064711;28;20218;-83
2023/10/30 07:11:56;;;;;;;4.23;3.13;;;;;11.80;96272.00;;;;5062214;28;20204;-81
2023/10/30 07:14:47;;;;;;;2.67;1.97;;;;;12.10;96270.00;;;;5065439;28;20223;-81
2023/10/30 07:17:36;;;;;;;3.63;2.50;;;;;12.00;96264.00;;;;5062287;28;20200;-82
2023/10/30 07:20:25;;;;;;;2.87;1.93;;;;;11.50;96272.00;;;;5068263;28;20208;-81
2023/10/30 07:23:14;;;;;;;2.63;1.80;;;;;11.20;96271.00;;;;5069068;28;20204;-81
2023/10/30 07:26:05;;;;;;;2.63;1.90;;;;;11.40;96269.00;;;;5067712;28;20219;-81
2023/10/30 07:28:55;;;;;;;3.73;2.70;;;;;11.60;96282.00;;;;5064366;28;20210;-82
2023/10/30 07:31:45;;;;;;;1.73;1.47;;;;;11.90;96272.00;;;;5065834;28;20231;-82
2023/10/30 07:34:34;;;;;;;4.57;3.00;;;;;11.80;96288.00;;;;5065705;28;20576;-81
2023/10/30 07:37:23;;;;;;;8.30;3.55;;;;;11.60;96280.00;;;;5062261;28;20508;-82
2023/10/30 07:40:13;;;;;;;3.70;2.30;;;;;11.90;96279.00;;;;5064463;28;20204;-81
2023/10/30 07:43:02;;;;;;;4.07;2.90;;;;;11.90;96282.00;;;;5065138;28;20608;-80
2023/10/30 07:45:52;;;;;;;2.57;1.87;;;;;12.00;96281.00;;;;5063495;28;20252;-82
2023/10/30 07:48:43;;;;;;;4.37;3.03;;;;;12.20;96286.00;;;;5067667;28;20211;-82
2023/10/30 07:51:32;;;;;;;4.97;3.37;;;;;12.10;96291.00;;;;5064565;28;20257;-83
2023/10/30 07:54:22;;;;;;;2.10;1.60;;;;;12.30;96294.00;;;;5064260;28;20249;-82
2023/10/30 07:57:11;;;;;;;3.90;2.50;;;;;12.60;96300.00;;;;5066241;28;20689;-81
2023/10/30 08:00:00;;;;;;;2.60;1.83;;;;;12.20;96301.00;;;;5080851;28;20208;-82
2023/10/30 08:02:49;;;;;;;2.20;1.53;;;;;12.00;96298.00;;;;5082826;28;20211;-82
2023/10/30 08:05:42;;;;;;;2.57;1.83;;;;;12.20;96305.00;;;;5067292;28;20219;-84
2023/10/30 08:08:31;;;;;;;9.20;3.72;;;;;12.30;96309.00;;;;5062916;28;20403;-84
2023/10/30 08:11:20;;;;;;;2.87;1.87;;;;;12.90;96316.00;;;;5065197;28;20203;-83
2023/10/30 08:14:09;;;;;;;4.40;3.23;;;;;12.70;96316.00;;;;5067216;28;20758;-84
2023/10/30 08:17:00;;;;;;;4.63;2.93;;;;;12.80;96325.00;;;;5066987;28;20207;-84
2023/10/30 08:19:49;;;;;;;2.17;1.50;;;;;12.60;96316.00;;;;5065245;28;20207;-83
2023/10/30 08:22:39;;;;;;;2.50;1.73;;;;;12.70;96324.00;;;;5066029;28;20204;-83
2023/10/30 08:25:28;;;;;;;3.47;2.47;;;;;12.70;96323.00;;;;5063495;28;20207;-84
2023/10/30 08:28:18;;;;;;;3.27;2.30;;;;;12.70;96320.00;;;;5066682;28;20207;-82
2023/10/30 08:31:07;;;;;;;4.90;3.50;;;;;13.00;96321.00;;;;5067999;28;20216;-83
2023/10/30 08:34:00;;;;;;;4.47;3.07;;;;;13.60;96318.00;;;;5064337;28;20220;-84
2023/10/30 08:36:49;;;;;;;3.77;2.57;;;;;13.80;96340.00;;;;5063643;28;20200;-84
2023/10/30 08:39:40;;;;;;;2.50;1.70;;;;;13.40;96338.00;;;;5064809;28;20199;-84
2023/10/30 08:42:29;;;;;;;4.20;2.50;;;;;13.40;96322.00;;;;5064855;28;20570;-82
2023/10/30 08:45:18;;;;;;;5.00;2.80;;;;;13.60;96327.00;;;;5063492;28;20228;-84
2023/10/30 08:48:07;;;;;;;5.10;3.37;;;;;13.80;96331.00;;;;5067793;28;20210;-84
2023/10/30 08:51:05;;;;;;;5.23;3.47;;;;;14.20;96334.00;;;;5066929;28;20204;-82
2023/10/30 08:53:54;;;;;;;9.15;3.58;;;;;14.10;96327.00;;;;5064144;28;20476;-84
2023/10/30 08:56:45;;;;;;;6.97;3.83;;;;;14.80;96333.00;;;;5065248;28;20215;-84
2023/10/30 08:59:38;;;;;;;3.00;1.83;;;;;14.70;96337.00;;;;5060770;28;20224;-82
2023/10/30 09:02:27;;;;;;;1.70;1.20;;;;;14.50;96327.00;;;;5066487;28;20219;-84
2023/10/30 09:05:16;;;;;;;3.13;2.00;;;;;14.70;96321.00;;;;5067937;28;20728;-83
2023/10/30 09:08:05;;;;;;;6.50;4.03;;;;;14.60;96316.00;;;;5067533;28;20289;-84
2023/10/30 09:10:54;;;;;;;7.17;4.37;;;;;14.90;96314.00;;;;5063487;28;20251;-82
2023/10/30 09:13:45;;;;;;;4.13;2.60;;;;;14.90;96317.00;;;;5066267;28;20228;-83
2023/10/30 09:16:34;;;;;;;5.57;3.30;;;;;14.70;96310.00;;;;5061644;28;20681;-83
2023/10/30 09:19:23;;;;;;;5.93;3.40;;;;;14.40;96307.00;;;;5063092;28;20204;-83
2023/10/30 09:22:12;;;;;;;4.57;2.67;;;;;14.50;96314.00;;;;5065641;28;20216;-81
2023/10/30 09:25:02;;;;;;;5.60;3.23;;;;;14.80;96305.00;;;;5065071;28;20681;-83
2023/10/30 09:27:51;;;;;;;3.60;1.97;;;;;15.30;96303.00;;;;5066585;28;20218;-84
2023/10/30 09:30:42;;;;;;;3.50;2.07;;;;;15.70;96305.00;;;;5067962;28;20591;-83
2023/10/30 09:33:31;;;;;;;4.93;2.67;;;;;15.80;96302.00;;;;5065398;28;20285;-81
2023/10/30 09:36:20;;;;;;;4.30;2.33;;;;;15.50;96306.00;;;;5070201;28;20562;-82
2023/10/30 09:39:09;;;;;;;6.37;3.83;;;;;15.50;96304.00;;;;5070868;28;20203;-84
2023/10/30 09:42:00;;;;;;;6.53;3.63;;;;;15.60;96296.00;;;;5066310;28;20199;-83
2023/10/30 09:44:52;;;;;;;4.67;2.63;;;;;16.10;96294.00;;;;5062109;28;20219;-81
2023/10/30 09:47:43;;;;;;;5.03;2.70;;;;;16.60;96297.00;;;;5065274;28;20215;-84
2023/10/30 09:50:33;;;;;;;5.40;2.83;;;;;16.50;96284.00;;;;5067683;28;20203;-83
2023/10/30 09:53:22;;;;;;;4.23;2.13;;;;;16.30;96272.00;;;;5068552;28;20232;-82
2023/10/30 09:56:12;;;;;;;4.07;2.43;;;;;16.90;96271.00;;;;5067874;28;20230;-84
2023/10/30 09:59:01;;;;;;;8.53;4.37;;;;;16.70;96272.00;;;;5071183;28;20228;-84
2023/10/30 10:01:50;;;;;;;3.97;2.07;;;;;17.60;96281.00;;;;5070023;28;20648;-84
2023/10/30 10:04:41;;;;;;;5.37;2.90;;;;;17.50;96276.00;;;;5069002;28;20224;-84
2023/10/30 10:07:30;;;;;;;4.17;2.37;;;;;16.70;96267.00;;;;5065047;28;20204;-84
2023/10/30 10:10:19;;;;;;;3.57;1.90;;;;;17.10;96270.00;;;;5068680;28;20204;-84
2023/10/30 10:13:08;;;;;;;8.73;4.50;;;;;18.20;96273.00;;;;5067912;28;20203;-85
2023/10/30 10:15:58;;;;;;;8.57;4.30;;;;;18.40;96270.00;;;;5067170;28;20235;-84
2023/10/30 10:18:47;;;;;;;4.83;2.53;;;;;19.40;96261.00;;;;5068371;28;20200;-84
2023/10/30 10:21:48;;;;;;;7.23;3.37;;;;;20.20;96261.00;;;;5067451;28;20680;-82
2023/10/30 10:24:39;;;;;;;4.57;2.20;;;;;20.60;96261.00;;;;5069661;28;20778;-82
2023/10/30 10:27:30;;;;;;;4.93;2.23;;;;;20.60;96269.00;;;;5070676;28;20208;-83
2023/10/30 10:30:25;;;;;;;3.60;1.70;;;;;20.00;96275.00;;;;5070021;28;20203;-84
2023/10/30 10:33:14;;;;;;;4.13;2.03;;;;;19.10;96274.00;;;;5070684;28;20200;-83
2023/10/30 10:36:04;;;;;;;8.53;4.23;;;;;18.60;96261.00;;;;5068935;28;20219;-83
2023/10/30 10:39:01;;;;;;;3.77;1.97;;;;;19.20;96258.00;;;;5073761;28;20222;-84
2023/10/30 10:41:52;;;;;;;3.70;2.00;;;;;19.60;96248.00;;;;5073919;28;20207;-83
2023/10/30 10:44:42;;;;;;;3.77;1.90;;;;;20.40;96218.00;;;;5069813;28;20226;-84
2023/10/30 10:47:31;;;;;;;3.50;1.83;;;;;21.00;96210.00;;;;5074262;28;20211;-85
2023/10/30 10:50:20;;;;;;;4.90;2.37;;;;;21.20;96203.00;;;;5076228;28;20200;-84
2023/10/30 10:53:11;;;;;;;7.80;3.73;;;;;21.80;96201.00;;;;5071331;28;20207;-83
2023/10/30 10:56:07;;;;;;;8.10;3.27;;;;;22.40;96204.00;;;;5067690;28;20219;-84
2023/10/30 10:59:01;;;;;;;9.90;4.07;;;;;23.10;96204.00;;;;5069216;28;20224;-84
2023/10/30 11:01:52;;;;;;;2.77;1.23;;;;;23.50;96197.00;;;;5066699;28;20204;-85
2023/10/30 11:04:41;;;;;;;8.20;3.37;;;;;23.70;96204.00;;;;5069290;28;20223;-84
2023/10/30 11:07:42;;;;;;;5.87;2.30;;;;;23.60;96198.00;;;;5068546;28;20576;-85
2023/10/30 11:10:34;;;;;;;3.40;1.43;;;;;24.10;96196.00;;;;5068513;28;20212;-85
2023/10/30 11:13:30;;;;;;;6.73;2.70;;;;;24.20;96201.00;;;;5070177;28;20765;-84
2023/10/30 11:16:22;;;;;;;8.10;3.30;;;;;24.60;96217.00;;;;5066011;28;20220;-85
2023/10/30 11:19:11;;;;;;;10.70;4.27;;;;;24.50;96212.00;;;;5064874;28;20212;-85
2023/10/30 11:22:00;;;;;;;12.97;4.83;;;;;24.60;96219.00;;;;5065899;28;20201;-84
2023/10/30 11:24:50;;;;;;;6.17;2.47;;;;;24.60;96217.00;;;;5069403;28;20245;-85
2023/10/30 11:27:39;;;;;;;10.17;3.77;;;;;24.50;96216.00;;;;5068757;28;20717;-84
2023/10/30 11:30:33;;;;;;;9.73;3.63;;;;;23.80;96200.00;;;;5068978;28;20218;-85
2023/10/30 11:33:22;;;;;;;4.93;1.87;;;;;23.30;96188.00;;;;5073657;28;20230;-84
2023/10/30 11:36:26;;;;;;;13.20;4.97;;;;;22.80;96197.00;;;;5073481;28;20207;-85
2023/10/30 11:39:21;;;;;;;15.43;5.43;;;;;22.90;96210.00;;;;5078709;22;20682;-69
2023/10/30 11:42:30;;;;;;;10.93;4.37;;;;;22.70;96205.00;;;;5063740;28;20280;-69
2023/10/30 11:45:24;;;;;;;8.20;3.40;;;;;22.50;96195.00;;;;5064288;28;20713;-69
2023/10/30 11:48:14;;;;;;;9.43;3.80;;;;;22.30;96203.00;;;;5059922;28;20218;-69
2023/10/30 11:51:04;;;;;;;7.73;3.23;;;;;22.10;96208.00;;;;5047856;28;20708;-69
2023/10/30 11:53:53;;;;;;;4.87;2.10;;;;;22.10;96207.00;;;;5047783;28;20220;-69
2023/10/30 11:56:48;;;;;;;12.57;5.20;;;;;21.80;96216.00;;;;5046001;28;20578;-68
2023/10/30 11:59:38;;;;;;;7.30;3.17;;;;;21.70;96214.00;;;;5042533;28;20702;-69
2023/10/30 12:02:27;;;;;;;7.17;3.13;;;;;21.70;96209.00;;;;5048329;28;20217;-69
2023/10/30 12:05:18;;;;;;;8.87;3.93;;;;;21.50;96200.00;;;;5043939;28;20692;-69
2023/10/30 12:08:09;;;;;;;8.07;3.77;;;;;21.50;96197.00;;;;5044335;28;20197;-68
2023/10/30 12:10:58;;;;;;;8.70;3.63;;;;;21.30;96192.00;;;;5045009;28;20240;-68
2023/10/30 12:13:50;;;;;;;7.00;3.30;;;;;21.30;96196.00;;;;5045623;28;20197;-69
2023/10/30 12:16:40;;;;;;;9.00;3.60;;;;;20.80;96188.00;;;;5043221;28;20265;-69
2023/10/30 12:19:29;;;;;;;9.37;3.87;;;;;20.90;96186.00;;;;5042155;28;20221;-67
2023/10/30 12:22:20;;;;;;;6.33;2.83;;;;;20.90;96186.00;;;;5044939;28;20221;-68
2023/10/30 12:25:10;;;;;;;8.30;3.93;;;;;20.70;96178.00;;;;5043596;28;20882;-68
2023/10/30 12:28:03;;;;;;;9.23;4.13;;;;;20.80;96178.00;;;;5041062;28;20215;-69
2023/10/30 12:30:55;;;;;;;5.53;2.67;;;;;20.90;96182.00;;;;5045157;28;20716;-68
2023/10/30 12:33:44;;;;;;;4.50;2.33;;;;;20.70;96163.00;;;;5046365;28;20208;-68
2023/10/30 12:36:33;;;;;;;7.13;3.40;;;;;20.60;96173.00;;;;5042858;28;20588;-69
2023/10/30 12:39:26;;;;;;;4.93;2.43;;;;;20.70;96166.00;;;;5044069;28;20588;-69
2023/10/30 12:42:15;;;;;;;3.83;1.87;;;;;20.70;96157.00;;;;5042901;28;20213;-69
2023/10/30 12:45:07;;;;;;;8.40;3.93;;;;;20.60;96159.00;;;;5044005;28;20216;-69
2023/10/30 12:47:56;;;;;;;6.10;2.83;;;;;20.60;96160.00;;;;5043136;28;20204;-68
2023/10/30 12:50:45;;;;;;;4.07;1.90;;;;;20.50;96162.00;;;;5043939;28;20229;-69
2023/10/30 12:53:35;;;;;;;2.23;1.07;;;;;20.40;96154.00;;;;5044259;28;20217;-69
2023/10/30 12:56:25;;;;;;;4.77;2.40;;;;;20.30;96143.00;;;;5044774;28;20212;-69
2023/10/30 12:59:14;;;;;;;10.15;4.90;;;;;20.30;96145.00;;;;5044186;28;20208;-69
2023/10/30 13:02:04;;;;;;;10.43;4.97;;;;;20.20;96151.00;;;;5043017;28;20223;-68
2023/10/30 13:04:53;;;;;;;5.57;2.97;;;;;20.10;96159.00;;;;5043807;28;20209;-68
2023/10/30 13:07:42;;;;;;;6.77;3.40;;;;;20.70;96149.00;;;;5042727;28;20715;-69
2023/10/30 13:10:31;;;;;;;5.07;2.50;;;;;20.70;96154.00;;;;5044617;28;20228;-69
2023/10/30 13:13:22;;;;;;;4.00;1.93;;;;;20.70;96142.00;;;;5044361;28;20235;-68
2023/10/30 13:16:11;;;;;;;9.17;4.63;;;;;20.70;96140.00;;;;5042696;28;20197;-68
2023/10/30 13:19:00;;;;;;;10.43;4.73;;;;;20.40;96138.00;;;;5043819;28;20575;-69
2023/10/30 13:21:49;;;;;;;5.17;2.63;;;;;20.40;96127.00;;;;5040583;28;20212;-68
2023/10/30 13:24:38;;;;;;;8.10;3.83;;;;;20.30;96123.00;;;;5042674;28;20783;-68
2023/10/30 13:27:27;;;;;;;3.70;1.80;;;;;20.20;96126.00;;;;5042343;28;20250;-68
2023/10/30 13:30:18;;;;;;;5.07;2.50;;;;;20.10;96123.00;;;;5043105;28;20228;-68
2023/10/30 13:33:07;;;;;;;9.07;4.63;;;;;20.20;96122.00;;;;5041219;28;20218;-68
2023/10/30 13:35:56;;;;;;;5.07;2.47;;;;;19.40;96116.00;;;;5042705;28;20201;-68
2023/10/30 13:38:45;;;;;;;8.93;4.43;;;;;19.30;96117.00;;;;5042860;28;20203;-66
2023/10/30 13:41:34;;;;;;;5.80;2.90;;;;;19.10;96112.00;;;;5044148;28;20579;-69
2023/10/30 13:44:23;;;;;;;7.50;3.60;;;;;18.90;96118.00;;;;5040157;28;20215;-69
2023/10/30 13:47:14;;;;;;;9.13;4.67;;;;;18.90;96127.00;;;;5042291;28;20224;-69
2023/10/30 13:50:03;;;;;;;8.90;4.70;;;;;19.40;96130.00;;;;5040992;28;20228;-69
2023/10/30 13:52:52;;;;;;;4.63;2.30;;;;;19.40;96135.00;;;;5042370;28;20217;-69
2023/10/30 13:55:41;;;;;;;4.57;2.30;;;;;19.40;96132.00;;;;5044045;28;20280;-69
2023/10/30 13:58:30;;;;;;;7.83;3.77;;;;;19.40;96122.00;;;;5042632;28;20697;-68
2023/10/30 14:01:19;;;;;;;4.27;2.37;;;;;19.20;96131.00;;;;5043628;28;20227;-70
2023/10/30 14:04:10;;;;;;;7.60;4.10;;;;;19.30;96119.00;;;;5043476;28;20208;-70
2023/10/30 14:07:00;;;;;;;8.13;4.20;;;;;19.20;96124.00;;;;5042235;28;20230;-69
2023/10/30 14:09:49;;;;;;;5.57;3.13;;;;;19.00;96134.00;;;;5041502;28;20224;-69
2023/10/30 14:12:38;;;;;;;5.13;2.47;;;;;18.60;96140.00;;;;5041983;28;20197;-68